Time;durP1;ratioP1;P1;durP2;ratioP2;P2;SDS_P1;SDS_P2;PMS_P1;PMS_P2;Temp;Humidity;BMP_temperature;BMP_pressure;BME280_temperature;BME280_humidity;BME280_pressure;Samples;Min_cycle;Max_cycle;Signal;HPM_P1;HPM_P2
2022/11/30 00:01:09;;;;;;;603.23;224.27;;;;;;;;;;4974616;28;20231;-54
2022/11/30 00:03:35;;;;;;;485.87;184.27;;;;;;;;;;4979648;28;20338;-54
2022/11/30 00:06:05;;;;;;;548.60;197.40;;;;;;;;;;4994177;28;20646;-53
2022/11/30 00:08:31;;;;;;;541.10;187.50;;;;;;;;;;4982612;28;21056;-54
2022/11/30 00:10:57;;;;;;;387.83;143.83;;;;;;;;;;4994000;28;20188;-54
2022/11/30 00:13:22;;;;;;;566.60;206.63;;;;;;;;;;4987704;28;20223;-54
2022/11/30 00:15:48;;;;;;;559.90;193.43;;;;;;;;;;4980014;28;20255;-55
2022/11/30 00:18:16;;;;;;;489.60;181.73;;;;;;;;;;4976901;28;20977;-54
2022/11/30 00:20:42;;;;;;;527.87;199.90;;;;;;;;;;4990923;28;20475;-53
2022/11/30 00:23:08;;;;;;;577.60;221.23;;;;;;;;;;4977536;28;20342;-53
2022/11/30 00:25:34;;;;;;;430.80;155.20;;;;;;;;;;4986897;28;20345;-54
2022/11/30 00:28:01;;;;;;;561.87;212.13;;;;;;;;;;4987069;28;20698;-53
2022/11/30 00:30:26;;;;;;;475.23;175.10;;;;;;;;;;4983937;28;20701;-54
2022/11/30 00:32:56;;;;;;;561.03;213.80;;;;;;;;;;4985984;28;20308;-53
2022/11/30 00:35:22;;;;;;;562.67;217.43;;;;;;;;;;4985407;28;20287;-54
2022/11/30 00:37:48;;;;;;;546.60;205.97;;;;;;;;;;4993516;28;20212;-53
2022/11/30 00:40:14;;;;;;;536.37;190.70;;;;;;;;;;4987263;28;20212;-54
2022/11/30 00:42:40;;;;;;;479.30;180.13;;;;;;;;;;4986590;28;20585;-54
2022/11/30 00:45:06;;;;;;;483.63;178.37;;;;;;;;;;4987855;28;20216;-52
2022/11/30 00:47:32;;;;;;;416.70;149.90;;;;;;;;;;4979182;28;20331;-53
2022/11/30 00:49:58;;;;;;;605.50;209.20;;;;;;;;;;4986947;28;20215;-52
2022/11/30 00:52:24;;;;;;;557.70;197.03;;;;;;;;;;4986031;28;20529;-53
2022/11/30 00:54:50;;;;;;;594.67;217.57;;;;;;;;;;4988149;28;20213;-53
2022/11/30 00:57:16;;;;;;;586.33;225.47;;;;;;;;;;4989706;28;20209;-53
2022/11/30 00:59:42;;;;;;;447.93;169.63;;;;;;;;;;4988783;28;20208;-52
2022/11/30 01:02:08;;;;;;;638.93;237.47;;;;;;;;;;4982964;28;21517;-53
2022/11/30 01:04:33;;;;;;;506.60;188.50;;;;;;;;;;4981336;28;20238;-53
2022/11/30 01:06:59;;;;;;;429.17;159.97;;;;;;;;;;4992627;28;20232;-53
2022/11/30 01:09:25;;;;;;;600.53;209.57;;;;;;;;;;4992682;28;20308;-53
2022/11/30 01:11:51;;;;;;;513.43;192.53;;;;;;;;;;4995731;28;21507;-53
2022/11/30 01:14:17;;;;;;;527.07;188.33;;;;;;;;;;4984329;28;20552;-53
2022/11/30 01:16:43;;;;;;;453.10;165.50;;;;;;;;;;4997074;28;20657;-53
2022/11/30 01:19:09;;;;;;;541.37;195.87;;;;;;;;;;4981630;28;20213;-52
2022/11/30 01:21:35;;;;;;;573.90;214.87;;;;;;;;;;4987589;28;20217;-54
2022/11/30 01:24:01;;;;;;;509.43;183.00;;;;;;;;;;4986530;28;20320;-53
2022/11/30 01:26:27;;;;;;;425.83;155.47;;;;;;;;;;4993651;28;20294;-53
2022/11/30 01:28:53;;;;;;;397.47;152.93;;;;;;;;;;4983637;28;21041;-52
2022/11/30 01:31:20;;;;;;;523.20;186.07;;;;;;;;;;4988699;28;20661;-53
2022/11/30 01:33:50;;;;;;;495.57;178.23;;;;;;;;;;4985233;28;20274;-54
2022/11/30 01:36:17;;;;;;;515.37;184.87;;;;;;;;;;4989736;28;20263;-52
2022/11/30 01:38:47;;;;;;;381.80;140.60;;;;;;;;;;4987676;28;23416;-53
2022/11/30 01:41:15;;;;;;;474.73;185.60;;;;;;;;;;4984260;28;20217;-53
2022/11/30 01:43:41;;;;;;;478.83;172.77;;;;;;;;;;4986518;28;20307;-52
2022/11/30 01:46:18;;;;;;;556.20;203.40;;;;;;;;;;4980467;28;20686;-53
2022/11/30 01:48:44;;;;;;;567.30;202.47;;;;;;;;;;4987848;28;20223;-53
2022/11/30 01:51:10;;;;;;;559.67;201.17;;;;;;;;;;4999356;28;20212;-53
2022/11/30 01:53:36;;;;;;;464.33;162.57;;;;;;;;;;4984341;28;20625;-53
2022/11/30 01:56:02;;;;;;;406.87;157.20;;;;;;;;;;4994633;28;20181;-53
2022/11/30 01:58:29;;;;;;;544.90;190.43;;;;;;;;;;4995811;28;20227;-53
2022/11/30 02:00:55;;;;;;;577.23;201.13;;;;;;;;;;4997256;28;20724;-54
2022/11/30 02:04:00;;;;;;;398.87;146.63;;;;;;;;;;4997883;28;20274;-53
2022/11/30 02:06:26;;;;;;;423.23;154.57;;;;;;;;;;4926880;28;20539;-53
2022/11/30 02:08:53;;;;;;;461.57;163.47;;;;;;;;;;4902926;29;20459;-53
2022/11/30 02:11:19;;;;;;;493.87;176.27;;;;;;;;;;4938210;28;20218;-53
2022/11/30 02:14:04;;;;;;;495.10;186.07;;;;;;;;;;4967075;28;20451;-53
2022/11/30 02:16:30;;;;;;;432.83;166.13;;;;;;;;;;4984758;28;20893;-53
2022/11/30 02:19:10;;;;;;;404.10;144.73;;;;;;;;;;4999960;28;20274;-53
2022/11/30 02:21:36;;;;;;;389.00;141.60;;;;;;;;;;4988682;28;20213;-53
2022/11/30 02:24:07;;;;;;;497.23;179.03;;;;;;;;;;4986177;28;20292;-54
2022/11/30 02:26:42;;;;;;;427.83;155.33;;;;;;;;;;4990717;28;20209;-53
2022/11/30 02:29:13;;;;;;;477.00;166.20;;;;;;;;;;4988720;28;20715;-53
2022/11/30 02:31:59;;;;;;;462.70;170.50;;;;;;;;;;4985221;28;20696;-53
2022/11/30 02:34:27;;;;;;;522.10;174.80;;;;;;;;;;4982009;28;20232;-54
2022/11/30 02:36:54;;;;;;;419.13;151.80;;;;;;;;;;4990001;28;20507;-53
2022/11/30 02:39:21;;;;;;;467.43;165.13;;;;;;;;;;4990055;28;20578;-54
2022/11/30 02:41:47;;;;;;;408.70;156.43;;;;;;;;;;4984479;28;20232;-53
2022/11/30 02:44:14;;;;;;;491.53;172.10;;;;;;;;;;4990639;28;20237;-53
2022/11/30 02:46:43;;;;;;;539.50;189.63;;;;;;;;;;4988988;28;20239;-53
2022/11/30 02:49:17;;;;;;;480.93;162.07;;;;;;;;;;4995563;28;20208;-52
2022/11/30 02:51:43;;;;;;;440.10;162.50;;;;;;;;;;4972922;28;20223;-53
2022/11/30 02:54:09;;;;;;;462.77;169.63;;;;;;;;;;4973056;28;20213;-54
2022/11/30 02:56:35;;;;;;;410.93;151.67;;;;;;;;;;4978095;28;20245;-53
2022/11/30 02:59:01;;;;;;;462.90;168.83;;;;;;;;;;4966624;28;21002;-52
2022/11/30 03:01:27;;;;;;;606.47;226.10;;;;;;;;;;4978119;28;20220;-53
2022/11/30 03:03:53;;;;;;;486.53;182.40;;;;;;;;;;4977105;28;24036;-54
2022/11/30 03:06:19;;;;;;;479.60;178.07;;;;;;;;;;4974053;28;20308;-54
2022/11/30 03:08:45;;;;;;;421.57;164.77;;;;;;;;;;4979464;28;20210;-53
2022/11/30 03:11:11;;;;;;;567.43;215.17;;;;;;;;;;4984055;28;21382;-53
2022/11/30 03:13:37;;;;;;;520.33;183.03;;;;;;;;;;4988902;28;20221;-52
2022/11/30 03:16:10;;;;;;;541.13;192.57;;;;;;;;;;4975260;28;20257;-52
2022/11/30 03:18:36;;;;;;;509.50;192.03;;;;;;;;;;4969944;28;20209;-54
2022/11/30 03:21:05;;;;;;;504.17;191.23;;;;;;;;;;4967216;28;20213;-54
2022/11/30 03:23:31;;;;;;;592.53;210.07;;;;;;;;;;4958387;28;20275;-54
2022/11/30 03:25:57;;;;;;;393.40;152.50;;;;;;;;;;4966366;28;20582;-53
2022/11/30 03:28:24;;;;;;;614.73;233.63;;;;;;;;;;4955989;28;20224;-52
2022/11/30 03:30:50;;;;;;;476.43;166.57;;;;;;;;;;4954723;28;20308;-52
2022/11/30 03:33:16;;;;;;;426.20;163.30;;;;;;;;;;4944716;28;20403;-54
2022/11/30 03:35:42;;;;;;;423.47;162.20;;;;;;;;;;4963024;28;20232;-53
2022/11/30 03:38:08;;;;;;;446.20;174.30;;;;;;;;;;4958187;28;20190;-54
2022/11/30 03:40:36;;;;;;;552.83;196.37;;;;;;;;;;4957414;28;20381;-52
2022/11/30 03:43:02;;;;;;;544.77;195.73;;;;;;;;;;4955648;28;20225;-52
2022/11/30 03:45:28;;;;;;;601.33;221.80;;;;;;;;;;4955746;28;20229;-53
2022/11/30 03:47:54;;;;;;;459.83;178.13;;;;;;;;;;4952572;28;20593;-53
2022/11/30 03:50:20;;;;;;;419.47;165.80;;;;;;;;;;4955115;28;20275;-53
2022/11/30 03:52:46;;;;;;;433.13;165.37;;;;;;;;;;4962767;28;20685;-53
2022/11/30 03:55:12;;;;;;;404.17;161.17;;;;;;;;;;4956546;28;20295;-52
2022/11/30 03:57:38;;;;;;;511.67;180.37;;;;;;;;;;4958271;28;20552;-54
2022/11/30 04:00:05;;;;;;;541.77;201.37;;;;;;;;;;4957108;28;20244;-53
2022/11/30 04:02:31;;;;;;;571.20;207.50;;;;;;;;;;4960470;28;20751;-52
2022/11/30 04:04:57;;;;;;;400.13;160.47;;;;;;;;;;4964322;28;20453;-53
2022/11/30 04:07:23;;;;;;;512.57;193.03;;;;;;;;;;4960972;28;20214;-53
2022/11/30 04:09:49;;;;;;;529.50;192.03;;;;;;;;;;4955796;28;20217;-53
2022/11/30 04:12:15;;;;;;;557.80;194.47;;;;;;;;;;4959124;28;20548;-52
2022/11/30 04:14:41;;;;;;;488.50;181.90;;;;;;;;;;4948275;28;20224;-54
2022/11/30 04:17:08;;;;;;;555.77;202.47;;;;;;;;;;4933943;28;20203;-52
2022/11/30 04:19:34;;;;;;;500.30;182.40;;;;;;;;;;4939759;28;20186;-53
2022/11/30 04:22:00;;;;;;;516.33;183.00;;;;;;;;;;4939065;28;20517;-53
2022/11/30 04:24:26;;;;;;;521.97;192.00;;;;;;;;;;4934500;28;20236;-52
2022/11/30 04:26:52;;;;;;;548.50;201.03;;;;;;;;;;4938577;28;20579;-53
2022/11/30 04:29:18;;;;;;;480.03;179.00;;;;;;;;;;4936244;28;20783;-53
2022/11/30 04:31:44;;;;;;;457.73;166.93;;;;;;;;;;4946985;28;20194;-54
2022/11/30 04:34:10;;;;;;;459.23;173.37;;;;;;;;;;4921975;28;20308;-52
2022/11/30 04:36:36;;;;;;;486.47;183.37;;;;;;;;;;4941203;28;20354;-54
2022/11/30 04:39:02;;;;;;;568.93;202.03;;;;;;;;;;4934293;28;20305;-53
2022/11/30 04:41:27;;;;;;;531.43;200.80;;;;;;;;;;4939389;28;20234;-53
2022/11/30 04:43:53;;;;;;;580.53;208.83;;;;;;;;;;4938311;28;20229;-53
2022/11/30 04:46:19;;;;;;;469.07;174.70;;;;;;;;;;4948656;28;20214;-53
2022/11/30 04:48:45;;;;;;;406.33;147.87;;;;;;;;;;4956704;28;20213;-54
2022/11/30 04:51:11;;;;;;;425.23;146.87;;;;;;;;;;4961360;28;20234;-52
2022/11/30 04:53:37;;;;;;;600.83;208.47;;;;;;;;;;4963705;28;20737;-53
2022/11/30 04:56:07;;;;;;;583.97;224.50;;;;;;;;;;4958463;28;20185;-53
2022/11/30 04:58:34;;;;;;;552.13;194.00;;;;;;;;;;4956909;28;20202;-53
2022/11/30 05:01:00;;;;;;;551.07;204.17;;;;;;;;;;4953308;28;20217;-53
2022/11/30 05:03:26;;;;;;;474.07;182.00;;;;;;;;;;4961273;28;20218;-52
2022/11/30 05:05:51;;;;;;;410.23;154.77;;;;;;;;;;4958889;28;20225;-54
2022/11/30 05:08:17;;;;;;;496.90;179.10;;;;;;;;;;4961394;28;20225;-52
2022/11/30 05:10:43;;;;;;;430.57;158.37;;;;;;;;;;4965308;28;20236;-53
2022/11/30 05:13:09;;;;;;;551.50;211.03;;;;;;;;;;4969255;28;21133;-52
2022/11/30 05:15:35;;;;;;;445.60;167.10;;;;;;;;;;4963966;28;20221;-53
2022/11/30 05:18:01;;;;;;;516.33;183.23;;;;;;;;;;4952555;28;23814;-52
2022/11/30 05:20:28;;;;;;;447.47;164.67;;;;;;;;;;4940305;28;20568;-52
2022/11/30 05:22:54;;;;;;;560.07;205.97;;;;;;;;;;4941604;28;20232;-53
2022/11/30 05:25:20;;;;;;;489.00;183.47;;;;;;;;;;4946904;28;20683;-54
2022/11/30 05:27:46;;;;;;;550.77;197.83;;;;;;;;;;4945147;28;20218;-55
2022/11/30 05:30:12;;;;;;;487.83;176.80;;;;;;;;;;4955093;28;20205;-52
2022/11/30 05:32:38;;;;;;;460.73;171.73;;;;;;;;;;4947958;28;20260;-53
2022/11/30 05:35:04;;;;;;;602.57;235.50;;;;;;;;;;4934155;28;20280;-53
2022/11/30 05:37:30;;;;;;;460.13;171.60;;;;;;;;;;4945362;28;20608;-53
2022/11/30 05:39:56;;;;;;;524.07;195.80;;;;;;;;;;4947244;28;20433;-53
2022/11/30 05:42:22;;;;;;;437.70;179.00;;;;;;;;;;4947330;28;20587;-52
2022/11/30 05:44:48;;;;;;;452.60;174.53;;;;;;;;;;4942762;28;20223;-53
2022/11/30 05:47:14;;;;;;;432.00;171.53;;;;;;;;;;4949232;28;20226;-54
2022/11/30 05:49:40;;;;;;;511.27;189.77;;;;;;;;;;4946930;28;20540;-53
2022/11/30 05:52:06;;;;;;;583.10;205.77;;;;;;;;;;4945733;28;20226;-53
2022/11/30 05:54:33;;;;;;;440.17;158.50;;;;;;;;;;4950237;28;20214;-52
2022/11/30 05:56:59;;;;;;;609.37;233.27;;;;;;;;;;4945271;28;21871;-53
2022/11/30 05:59:25;;;;;;;426.07;170.03;;;;;;;;;;4943991;28;20339;-54
2022/11/30 06:01:51;;;;;;;435.10;170.57;;;;;;;;;;4941388;28;20269;-54
2022/11/30 06:04:17;;;;;;;467.23;167.33;;;;;;;;;;4941256;28;20228;-53
2022/11/30 06:06:43;;;;;;;421.70;155.40;;;;;;;;;;4941345;28;20583;-54
2022/11/30 06:09:09;;;;;;;594.00;220.27;;;;;;;;;;4939847;28;20683;-52
2022/11/30 06:11:35;;;;;;;490.60;198.17;;;;;;;;;;4921304;28;20218;-53
2022/11/30 06:14:01;;;;;;;589.30;217.97;;;;;;;;;;4927050;28;20249;-54
2022/11/30 06:16:27;;;;;;;421.03;160.47;;;;;;;;;;4935457;28;20187;-55
2022/11/30 06:18:53;;;;;;;656.93;238.10;;;;;;;;;;4941351;28;23277;-53
2022/11/30 06:21:19;;;;;;;640.70;233.60;;;;;;;;;;4914586;28;20221;-53
2022/11/30 06:23:45;;;;;;;588.17;221.57;;;;;;;;;;4939223;28;20221;-53
2022/11/30 06:26:11;;;;;;;418.43;158.63;;;;;;;;;;4942409;28;20498;-54
2022/11/30 06:28:38;;;;;;;525.67;193.47;;;;;;;;;;4944652;28;20278;-53
2022/11/30 06:31:05;;;;;;;723.47;272.83;;;;;;;;;;4930038;28;20778;-54
2022/11/30 06:33:31;;;;;;;543.03;207.50;;;;;;;;;;4947954;28;20222;-53
2022/11/30 06:35:57;;;;;;;537.43;203.97;;;;;;;;;;4963854;28;20248;-54
2022/11/30 06:38:24;;;;;;;556.53;192.77;;;;;;;;;;4954252;28;20957;-52
2022/11/30 06:40:50;;;;;;;468.17;172.07;;;;;;;;;;4958278;28;20190;-52
2022/11/30 06:43:17;;;;;;;468.13;169.30;;;;;;;;;;4936071;28;20236;-52
2022/11/30 06:45:43;;;;;;;534.60;200.00;;;;;;;;;;4942797;28;20269;-53
2022/11/30 06:48:09;;;;;;;801.33;315.97;;;;;;;;;;4922892;28;20245;-53
2022/11/30 06:50:36;;;;;;;403.50;148.63;;;;;;;;;;4933431;28;20352;-53
2022/11/30 06:53:02;;;;;;;693.70;260.17;;;;;;;;;;4898680;28;20457;-53
2022/11/30 06:55:31;;;;;;;524.43;186.80;;;;;;;;;;4937433;28;20178;-53
2022/11/30 06:58:03;;;;;;;472.73;167.40;;;;;;;;;;4946504;28;20571;-53
2022/11/30 07:00:29;;;;;;;441.20;164.07;;;;;;;;;;4940062;28;23970;-53
2022/11/30 07:02:55;;;;;;;493.13;184.93;;;;;;;;;;4943100;28;20233;-54
2022/11/30 07:05:21;;;;;;;488.23;179.87;;;;;;;;;;4948431;28;20231;-53
2022/11/30 07:07:47;;;;;;;482.80;176.87;;;;;;;;;;4927815;28;20982;-52
2022/11/30 07:10:13;;;;;;;630.73;231.67;;;;;;;;;;4935520;28;20237;-52
2022/11/30 07:12:39;;;;;;;421.57;158.83;;;;;;;;;;4926078;28;20230;-53
2022/11/30 07:15:05;;;;;;;636.33;221.50;;;;;;;;;;4943693;28;20226;-53
2022/11/30 07:17:31;;;;;;;587.20;209.00;;;;;;;;;;4948422;28;20273;-53
2022/11/30 07:19:57;;;;;;;518.17;182.83;;;;;;;;;;4945209;28;20178;-54
2022/11/30 07:22:23;;;;;;;426.07;156.40;;;;;;;;;;4949529;28;20329;-54
2022/11/30 07:27:34;;;;;;;554.20;208.27;;;;;;;;;;4945164;28;20346;-53
2022/11/30 07:30:00;;;;;;;562.60;209.60;;;;;;;;;;4933583;28;20221;-54
2022/11/30 07:32:26;;;;;;;543.63;210.33;;;;;;;;;;4951205;28;20245;-54
2022/11/30 07:34:52;;;;;;;531.77;196.03;;;;;;;;;;4941325;28;21530;-53
2022/11/30 07:37:17;;;;;;;408.63;152.10;;;;;;;;;;4942553;28;20195;-54
2022/11/30 07:39:43;;;;;;;488.40;183.23;;;;;;;;;;4938339;28;20226;-53
2022/11/30 07:42:09;;;;;;;638.33;237.10;;;;;;;;;;4938771;28;20221;-54
2022/11/30 07:44:35;;;;;;;477.67;181.13;;;;;;;;;;4930679;28;20784;-56
2022/11/30 07:47:01;;;;;;;528.07;204.47;;;;;;;;;;4929101;28;20194;-56
2022/11/30 07:49:27;;;;;;;555.47;202.67;;;;;;;;;;4934719;28;20182;-55
2022/11/30 07:51:53;;;;;;;436.77;167.70;;;;;;;;;;4939180;28;20318;-55
2022/11/30 07:54:19;;;;;;;440.87;163.17;;;;;;;;;;4933444;28;20595;-55
2022/11/30 07:56:45;;;;;;;484.33;188.00;;;;;;;;;;4927040;28;20210;-54
2022/11/30 07:59:11;;;;;;;431.43;168.53;;;;;;;;;;4945698;28;22775;-54
2022/11/30 08:01:37;;;;;;;495.50;182.13;;;;;;;;;;4952702;28;20188;-54
2022/11/30 08:04:03;;;;;;;400.97;145.47;;;;;;;;;;4958713;28;20233;-55
2022/11/30 08:06:30;;;;;;;467.83;168.40;;;;;;;;;;4958543;28;20667;-55
2022/11/30 08:08:57;;;;;;;344.67;139.10;;;;;;;;;;4960986;28;20292;-56
2022/11/30 08:11:24;;;;;;;509.63;173.63;;;;;;;;;;4957311;28;20217;-54
2022/11/30 08:13:50;;;;;;;531.03;198.43;;;;;;;;;;4958117;28;20304;-54
2022/11/30 08:16:18;;;;;;;536.87;193.37;;;;;;;;;;4959950;28;20313;-54
2022/11/30 08:18:44;;;;;;;408.93;145.87;;;;;;;;;;4959218;28;20241;-54
2022/11/30 08:21:12;;;;;;;429.73;159.87;;;;;;;;;;4959528;28;20236;-55
2022/11/30 08:23:39;;;;;;;494.37;187.13;;;;;;;;;;4958671;28;20218;-54
2022/11/30 08:26:05;;;;;;;445.13;165.03;;;;;;;;;;4958829;28;20213;-54
2022/11/30 08:28:31;;;;;;;530.23;189.93;;;;;;;;;;4956499;28;20616;-54
2022/11/30 08:31:02;;;;;;;453.20;165.20;;;;;;;;;;4954843;28;20276;-54
2022/11/30 08:33:28;;;;;;;385.63;142.57;;;;;;;;;;4954701;28;20662;-54
2022/11/30 08:35:54;;;;;;;398.70;145.07;;;;;;;;;;4958227;28;20695;-54
2022/11/30 08:38:20;;;;;;;646.83;246.73;;;;;;;;;;4948164;28;20880;-55
2022/11/30 08:40:46;;;;;;;567.07;199.07;;;;;;;;;;4951440;28;20209;-54
2022/11/30 08:43:12;;;;;;;425.37;166.93;;;;;;;;;;4951804;28;20214;-54
2022/11/30 08:45:38;;;;;;;546.70;188.23;;;;;;;;;;4955740;28;20248;-54
2022/11/30 08:48:04;;;;;;;489.53;176.67;;;;;;;;;;4955634;28;20232;-54
2022/11/30 08:50:30;;;;;;;504.03;185.53;;;;;;;;;;4946365;28;20261;-54
2022/11/30 08:52:56;;;;;;;469.00;176.33;;;;;;;;;;4957611;28;20210;-54
2022/11/30 08:55:22;;;;;;;482.00;181.07;;;;;;;;;;4948226;28;20608;-53
2022/11/30 08:57:48;;;;;;;575.83;207.83;;;;;;;;;;4953893;28;20218;-54
2022/11/30 09:00:14;;;;;;;450.10;168.17;;;;;;;;;;4953144;28;20914;-53
2022/11/30 09:02:40;;;;;;;551.67;198.03;;;;;;;;;;4942611;28;20225;-53
2022/11/30 09:05:06;;;;;;;485.83;190.50;;;;;;;;;;4941310;28;20468;-55
2022/11/30 09:07:32;;;;;;;532.80;193.87;;;;;;;;;;4945894;28;20581;-54
2022/11/30 09:09:58;;;;;;;555.37;208.87;;;;;;;;;;4945547;28;21920;-53
2022/11/30 09:12:24;;;;;;;575.70;210.93;;;;;;;;;;4945327;28;20249;-54
2022/11/30 09:14:50;;;;;;;490.10;184.50;;;;;;;;;;4926990;28;20280;-54
2022/11/30 09:17:16;;;;;;;510.80;183.77;;;;;;;;;;4958634;28;20244;-55
2022/11/30 09:19:43;;;;;;;483.33;179.77;;;;;;;;;;4959818;28;20186;-55
2022/11/30 09:22:09;;;;;;;446.80;160.23;;;;;;;;;;4954691;28;20274;-54
2022/11/30 09:24:36;;;;;;;604.80;225.33;;;;;;;;;;4948703;28;20605;-54
2022/11/30 09:27:02;;;;;;;508.10;177.37;;;;;;;;;;4957209;28;20369;-55
2022/11/30 09:29:28;;;;;;;444.67;164.40;;;;;;;;;;4955314;28;20345;-54
2022/11/30 09:31:54;;;;;;;518.80;191.40;;;;;;;;;;4947364;28;20297;-55
2022/11/30 09:34:20;;;;;;;443.40;155.97;;;;;;;;;;4948278;28;20612;-54
2022/11/30 09:36:46;;;;;;;665.87;242.30;;;;;;;;;;4928813;28;20222;-53
2022/11/30 09:39:12;;;;;;;570.00;213.63;;;;;;;;;;4934092;28;20230;-53
2022/11/30 09:42:00;;;;;;;576.47;222.93;;;;;;;;;;4950845;28;20701;-54
2022/11/30 09:44:29;;;;;;;403.87;150.40;;;;;;;;;;4955924;28;20225;-54
2022/11/30 09:47:02;;;;;;;538.37;205.87;;;;;;;;;;4948114;28;20607;-55
2022/11/30 09:49:35;;;;;;;412.03;155.13;;;;;;;;;;4952249;28;20190;-54
2022/11/30 09:52:03;;;;;;;539.47;203.57;;;;;;;;;;4946218;28;20699;-54
2022/11/30 09:54:42;;;;;;;632.67;231.43;;;;;;;;;;4950028;28;20256;-54
2022/11/30 09:57:25;;;;;;;553.03;197.83;;;;;;;;;;4945247;28;20210;-54
2022/11/30 09:59:54;;;;;;;493.67;182.17;;;;;;;;;;4940257;28;20403;-53
2022/11/30 10:02:21;;;;;;;646.63;235.93;;;;;;;;;;4936425;28;20261;-53
2022/11/30 10:04:47;;;;;;;448.07;162.00;;;;;;;;;;4939820;28;20767;-53
2022/11/30 10:07:16;;;;;;;554.53;217.33;;;;;;;;;;4934680;28;20214;-53
2022/11/30 10:09:47;;;;;;;548.90;210.07;;;;;;;;;;4947913;28;20660;-54
2022/11/30 10:12:28;;;;;;;725.23;285.50;;;;;;;;;;4938246;28;20222;-53
2022/11/30 10:14:57;;;;;;;794.17;326.67;;;;;;;;;;4933444;28;20288;-54
2022/11/30 10:17:28;;;;;;;743.07;302.03;;;;;;;;;;4933488;28;20218;-53
2022/11/30 10:20:11;;;;;;;723.83;298.73;;;;;;;;;;4940444;28;20825;-53
2022/11/30 10:22:55;;;;;;;780.90;314.00;;;;;;;;;;4944616;28;20194;-56
2022/11/30 10:25:23;;;;;;;626.50;243.60;;;;;;;;;;4953191;28;20229;-56
2022/11/30 10:27:51;;;;;;;729.70;287.90;;;;;;;;;;4937066;28;20336;-55
2022/11/30 10:30:24;;;;;;;629.10;247.97;;;;;;;;;;4947226;28;20245;-55
2022/11/30 10:32:52;;;;;;;594.40;234.50;;;;;;;;;;4944662;28;22435;-54
2022/11/30 10:35:33;;;;;;;624.13;248.03;;;;;;;;;;4943991;28;20240;-55
2022/11/30 10:38:02;;;;;;;660.27;261.00;;;;;;;;;;4950272;28;20221;-56
2022/11/30 10:40:42;;;;;;;557.63;217.20;;;;;;;;;;4945905;28;20190;-54
2022/11/30 10:43:16;;;;;;;618.37;242.23;;;;;;;;;;4945589;28;20210;-55
2022/11/30 10:45:47;;;;;;;519.57;204.50;;;;;;;;;;4948093;28;20918;-55
2022/11/30 10:48:31;;;;;;;808.17;338.47;;;;;;;;;;4932303;28;20261;-54
2022/11/30 10:50:58;;;;;;;640.17;250.33;;;;;;;;;;4941011;28;20232;-56
2022/11/30 10:53:24;;;;;;;638.87;245.80;;;;;;;;;;4945249;28;20358;-54
2022/11/30 10:56:06;;;;;;;658.10;275.07;;;;;;;;;;4931083;28;20211;-55
2022/11/30 10:58:32;;;;;;;742.50;301.47;;;;;;;;;;4945487;28;20579;-54
2022/11/30 11:01:02;;;;;;;582.17;230.20;;;;;;;;;;4936046;28;20221;-54
2022/11/30 11:03:28;;;;;;;499.37;193.53;;;;;;;;;;4936941;28;20210;-55
2022/11/30 11:06:12;;;;;;;562.13;215.77;;;;;;;;;;4940071;28;20463;-56
2022/11/30 11:08:38;;;;;;;639.90;251.70;;;;;;;;;;4952830;28;21287;-52
2022/11/30 11:11:24;;;;;;;647.77;257.63;;;;;;;;;;4937193;28;20190;-52
2022/11/30 11:13:50;;;;;;;737.23;295.53;;;;;;;;;;4939324;28;20313;-53
2022/11/30 11:16:16;;;;;;;649.07;261.30;;;;;;;;;;4943525;28;21655;-53
2022/11/30 11:18:53;;;;;;;666.27;272.17;;;;;;;;;;4935376;28;20579;-54
2022/11/30 11:21:20;;;;;;;727.20;297.93;;;;;;;;;;4948495;28;20630;-54
2022/11/30 11:23:47;;;;;;;671.13;261.07;;;;;;;;;;4952907;28;20277;-53
2022/11/30 11:26:22;;;;;;;595.13;239.10;;;;;;;;;;4935588;28;20218;-53
2022/11/30 11:28:49;;;;;;;660.93;270.47;;;;;;;;;;4942081;28;20201;-54
2022/11/30 11:31:16;;;;;;;726.83;293.63;;;;;;;;;;4940489;28;20445;-54
2022/11/30 11:33:49;;;;;;;551.73;227.53;;;;;;;;;;4944780;28;20221;-54
2022/11/30 11:36:22;;;;;;;587.83;241.53;;;;;;;;;;4923359;28;20221;-54
2022/11/30 11:38:48;;;;;;;596.23;238.50;;;;;;;;;;4925724;28;20214;-53
2022/11/30 11:41:16;;;;;;;507.17;206.80;;;;;;;;;;4938330;28;21036;-53
2022/11/30 11:44:01;;;;;;;550.13;220.40;;;;;;;;;;4932704;28;20661;-54
2022/11/30 11:46:27;;;;;;;705.10;276.83;;;;;;;;;;4931974;28;20230;-53
2022/11/30 11:49:02;;;;;;;631.83;252.27;;;;;;;;;;4947363;28;20706;-54
2022/11/30 11:51:29;;;;;;;667.03;267.93;;;;;;;;;;4934178;28;20412;-53
2022/11/30 11:53:56;;;;;;;554.90;219.87;;;;;;;;;;4934853;28;20252;-52
2022/11/30 11:56:27;;;;;;;702.37;273.40;;;;;;;;;;4932031;28;20730;-53
2022/11/30 11:58:58;;;;;;;722.67;280.77;;;;;;;;;;4930747;28;20268;-53
2022/11/30 12:01:32;;;;;;;618.13;247.13;;;;;;;;;;4941441;28;20194;-53
2022/11/30 12:04:07;;;;;;;505.20;205.57;;;;;;;;;;4925678;28;20779;-53
2022/11/30 12:06:34;;;;;;;653.23;265.80;;;;;;;;;;4933054;28;20288;-53
2022/11/30 12:09:02;;;;;;;675.73;266.87;;;;;;;;;;4928790;28;20308;-54
2022/11/30 12:11:40;;;;;;;687.53;279.63;;;;;;;;;;4933079;28;20275;-53
2022/11/30 12:14:10;;;;;;;577.43;231.00;;;;;;;;;;4930905;28;21250;-53
2022/11/30 12:16:54;;;;;;;603.80;241.83;;;;;;;;;;4947335;28;20248;-53
2022/11/30 12:19:22;;;;;;;640.30;259.53;;;;;;;;;;4937244;28;20342;-54
2022/11/30 12:21:48;;;;;;;527.20;205.77;;;;;;;;;;4950081;28;20269;-53
2022/11/30 12:24:20;;;;;;;737.27;298.50;;;;;;;;;;4937686;28;20343;-53
2022/11/30 12:26:52;;;;;;;511.97;198.13;;;;;;;;;;4945630;28;20249;-54
2022/11/30 12:29:28;;;;;;;681.63;257.10;;;;;;;;;;4932246;28;20217;-53
2022/11/30 12:32:19;;;;;;;620.57;244.40;;;;;;;;;;4944440;28;20232;-53
2022/11/30 12:34:48;;;;;;;567.43;231.17;;;;;;;;;;4939998;28;20209;-54
2022/11/30 12:37:25;;;;;;;581.90;227.30;;;;;;;;;;4942708;28;20523;-53
2022/11/30 12:40:10;;;;;;;533.43;197.80;;;;;;;;;;4941898;28;20221;-54
2022/11/30 12:42:46;;;;;;;661.90;255.33;;;;;;;;;;4940426;28;20982;-54
2022/11/30 12:45:30;;;;;;;520.53;205.53;;;;;;;;;;4939867;28;20837;-54
2022/11/30 12:48:19;;;;;;;701.27;269.70;;;;;;;;;;4943402;28;20233;-54
2022/11/30 12:51:04;;;;;;;607.40;236.37;;;;;;;;;;4944139;28;20622;-54
2022/11/30 12:53:30;;;;;;;556.13;216.63;;;;;;;;;;4945603;28;20227;-53
2022/11/30 12:55:59;;;;;;;508.43;198.67;;;;;;;;;;4952129;28;20596;-53
2022/11/30 12:58:35;;;;;;;709.73;287.67;;;;;;;;;;4938763;28;20249;-54
2022/11/30 13:01:10;;;;;;;663.83;256.00;;;;;;;;;;4940577;28;20410;-53
2022/11/30 13:03:54;;;;;;;631.77;244.37;;;;;;;;;;4943912;28;20232;-53
2022/11/30 13:06:27;;;;;;;661.73;251.33;;;;;;;;;;4939181;28;20205;-53
2022/11/30 13:08:56;;;;;;;561.37;220.17;;;;;;;;;;4936602;28;20835;-53
2022/11/30 13:11:42;;;;;;;642.60;243.83;;;;;;;;;;4936412;28;20218;-53
2022/11/30 13:14:12;;;;;;;643.47;250.67;;;;;;;;;;4929525;28;20337;-54
2022/11/30 13:16:39;;;;;;;616.50;236.43;;;;;;;;;;4955307;28;20190;-53
2022/11/30 13:19:20;;;;;;;554.73;208.40;;;;;;;;;;4964366;28;20217;-54
2022/11/30 13:21:51;;;;;;;647.83;253.10;;;;;;;;;;4953739;28;20689;-53
2022/11/30 13:24:31;;;;;;;657.70;263.73;;;;;;;;;;4940502;28;20666;-54
2022/11/30 13:27:06;;;;;;;573.83;225.00;;;;;;;;;;4957335;28;20314;-54
2022/11/30 13:29:50;;;;;;;604.37;232.37;;;;;;;;;;4957968;28;20275;-53
2022/11/30 13:32:17;;;;;;;657.73;253.87;;;;;;;;;;4961228;28;20540;-53
2022/11/30 13:34:43;;;;;;;651.77;255.93;;;;;;;;;;4956581;28;21817;-54
2022/11/30 13:37:20;;;;;;;556.40;216.10;;;;;;;;;;4958422;28;20668;-54
2022/11/30 13:39:48;;;;;;;605.13;229.27;;;;;;;;;;4964412;28;20924;-54
2022/11/30 13:42:26;;;;;;;647.23;248.23;;;;;;;;;;4969822;28;20598;-54
2022/11/30 13:44:52;;;;;;;588.63;234.47;;;;;;;;;;4961492;28;20619;-53
2022/11/30 13:47:28;;;;;;;569.33;209.97;;;;;;;;;;4966458;28;20217;-54
2022/11/30 13:49:56;;;;;;;492.80;187.83;;;;;;;;;;4968429;28;20212;-53
2022/11/30 13:52:42;;;;;;;615.53;244.87;;;;;;;;;;4963731;28;20221;-54
2022/11/30 13:55:26;;;;;;;590.07;230.40;;;;;;;;;;4928501;28;20221;-55
2022/11/30 13:57:52;;;;;;;657.87;250.63;;;;;;;;;;4970814;28;20221;-53
2022/11/30 14:00:25;;;;;;;616.17;245.93;;;;;;;;;;4964775;28;20223;-52
2022/11/30 14:02:53;;;;;;;638.87;248.13;;;;;;;;;;4969484;28;20713;-53